Watsonville, CA

9:00 PM PDT on August 27, 2016 (GMT -0700)
APRSWXNET | | Change Station

Elev 69 ft 36.87 °N, 121.73 °W | Updated 62 days ago

Partly Cloudy
Partly Cloudy
60 °F
Feels Like 60 °F
N
3
Wind Variable Wind from SW
Gusts mph

Today
High -- | Low -- °F
--% Chance of Precip.
Yesterday
High -- | Low -- °F
Precip. -- in
Pressure 30.03 in
Visibility 10.0 miles
Clouds Clear
Dew Point 56 °F
Humidity 88%
Rainfall in
Snow Depth Not available.
6:34 AM 7:41 PM
Waning Crescent, 19% visible
METAR KWVI 280353Z AUTO 00000KT 10SM CLR 14/13 A3003 RMK AO2 SLP167 T01440133
Pressure 30.03 in
Visibility 10.0 miles
Clouds Clear
Dew Point 56 °F
Humidity 88%
Rainfall in
Snow Depth Not available.
6:34 AM 7:41 PM
Waning Crescent, 19% visible
METAR KWVI 280353Z AUTO 00000KT 10SM CLR 14/13 A3003 RMK AO2 SLP167 T01440133

10-Day Weather Forecast

Almanac

Astronomy

Aug. 27, 2016 Rise Set
Actual Time
Civil Twilight
Nautical Twilight
Astronomical Twilight
Moon
Length of Visible Light
Length of Day
Tomorrow will be .
, % of the Moon is Illuminated

Today's Extremes

State Highs State Lows

Community

WunderPhotos

Upload Photos

1,935,519 photos uploaded!

WunderBlog® & News

Nearby

Air Quality

  Air Quality AQ Index Pollutant
Not available.

Snow Depth

Station Depth Elevation

Earthquake Activity

City Distance Mag. Time & Date
Minimum magnitude displayed is 2.5.

Coastal Water Temperatures

Place Temperature

Stations

Nearby Weather Stations

Station Location Temp. Windchill Dew Point Humidity Wind Precip. Elev Updated Type
                   

Watches & Warnings

There are currently no watches in effect.